Shawbury, United Kingdom

1:41 PM BST on October 24, 2014 (GMT +0100)
Shrewsbury | Change Station
CLOSE
Current Station
Personal Weather Station
Location: Shrewsbury, ENGLAND
Elevation: 171 ft
Nearby Weather Stations

Elev 171 ft 52.70 °N, 2.74 °W | Updated 12 minutes ago

Scattered Clouds
Scattered Clouds
57.7 °F
Feels Like 57.7 °F
N
0.7
Wind Variable Wind from NW
Gusts 4.5 mph

Today
High -- | Low -- °F
--% Chance of Precip.
Yesterday
High -- | Low -- °F
Precip. -- in
7:52 AM 5:56 PM
New Moon, 0% visible
Pressure 29.89 in
Visibility 6.2 miles
Clouds Few 1100 ft
Scattered Clouds 2300 ft
Dew Point 50 °F
Humidity 76%
Rainfall 0.00 in
Snow Depth Not available.
UV 2 out of 12
Pollen Not available.
Air Quality Not available.
Flu Activity Not available.
METAR EGNR 241220Z 24008KT 9999 FEW011 SCT023 15/10 Q1012

More Conditions Fewer Conditions

Pressure 29.89 in
Visibility 6.2 miles
Clouds Few 1100 ft
Scattered Clouds 2300 ft
Dew Point 50 °F
Humidity 76%
Rainfall 0.00 in
Snow Depth Not available.
UV 2 out of 12
Pollen Not available.
Air Quality Not available.
Flu Activity Not available.
METAR EGNR 241220Z 24008KT 9999 FEW011 SCT023 15/10 Q1012

More Conditions Fewer Conditions

10-Day Weather Forecast

Almanac

Astronomy

Oct. 24, 2014 Rise Set
Actual Time 7:52 AM BST 5:56 PM BST
Civil Twilight 7:17 AM BST 6:31 PM BST
Nautical Twilight 6:37 AM BST 7:11 PM BST
Astronomical Twilight 5:57 AM BST 7:51 PM BST
Moon 8:20 AM BST 6:21 PM BST
Length of Visible Light 11h 14m
Length of Day
10h 03m
Tomorrow will be 3m 54s shorter.
New Moon, 0% of the Moon is Illuminated
Today
New Moon
Oct 30
First Quarter
Nov 6
Full
Nov 14
Last Quarter
Nov 22
New

Yesterday's Extremes

Country Highs Country Lows

Community

WunderPhotos

Upload Photos

1,764,544 photos uploaded!

Nearby

Snow Depth

Not available.

Earthquake Activity

City Distance Mag. Time & Date
No recent earthquake activity has been reported nearby.
Minimum magnitude displayed is 2.5.

Coastal Water Temperatures

Place Temperature
No Stations Reporting

Nearby Weather Stations